KSGU/SGU METAR and TAF weather

Enter ICAO airport designator
Station Type Date Time Source
KSGU METAR 2020/01/23 08:56 UTC NOAA

KSGU 230856Z AUTO 13005KT 10SM CLR 02/00 A3024 RMK AO2 SLP243 T00220000 50003 FZRANO


Station Type Date Time Source
KSGU Decoded METAR 2020/01/23 08:56 UTC NOAA

St George, St George Municipal Airport, UT, United States (KSGU) 37-05N 113-36W
Jan 23, 2020 - 03:56 AM EST / 2020.01.23 0856 UTC
Wind: from the SE (130 degrees) at 6 MPH (5 KT):0
Visibility: 10 mile(s):0
Sky conditions: clear
Temperature: 36.0 F (2.2 C)
Dew Point: 32.0 F (0.0 C)
Relative Humidity: 85%
Pressure (altimeter): 30.24 in. Hg (1024 hPa)
Pressure tendency: 0.01 inches (0.3 hPa) higher than three hours ago
ob: KSGU 230856Z AUTO 13005KT 10SM CLR 02/00 A3024 RMK AO2 SLP243 T00220000 50003 FZRANO
cycle: 9

Station Type Date Time Source
KSGU TAF 2020/01/23 06:54 UTC NOAA

TAF KSGU 230553Z 2306/2406 VRB04KT P6SM SCT200

Example: see airport list